createdAt,value
2022-09-25T00:00:20.547Z,33.39
2022-09-25T00:03:50.264Z,33.11
2022-09-25T00:06:57.946Z,32.96
2022-09-25T00:10:02.521Z,33.08
2022-09-25T00:13:29.627Z,33.13
2022-09-25T00:16:40.717Z,33.19
2022-09-25T00:20:14.164Z,33.12
2022-09-25T00:27:30.500Z,32.75
2022-09-25T00:30:58.472Z,32.92
2022-09-25T00:34:17.271Z,32.86
2022-09-25T00:58:22.561Z,33.39
2022-09-25T01:01:49.637Z,33.45
2022-09-25T01:05:16.418Z,33.60
2022-09-25T01:08:45.315Z,33.92
2022-09-25T01:12:12.134Z,34.02
2022-09-25T01:15:38.813Z,33.93
2022-09-25T01:19:17.511Z,34.31
2022-09-25T01:22:44.924Z,34.26
2022-09-25T01:26:15.950Z,34.46
2022-09-25T01:29:48.946Z,34.74
2022-09-25T01:33:23.882Z,34.92
2022-09-25T01:37:05.887Z,35.12
2022-09-25T01:40:32.728Z,35.24
2022-09-25T01:43:41.955Z,35.36
2022-09-25T01:47:13.668Z,35.58
2022-09-25T01:50:39.117Z,35.63
2022-09-25T01:54:07.753Z,35.90
2022-09-25T01:57:36.318Z,36.02
2022-09-25T02:01:06.223Z,36.23
2022-09-25T02:04:32.348Z,36.37
2022-09-25T02:07:33.261Z,36.65
2022-09-25T02:09:59.782Z,36.85
2022-09-25T02:12:36.824Z,36.82
2022-09-25T02:15:56.465Z,37.06
2022-09-25T02:18:59.489Z,37.16
2022-09-25T02:22:06.454Z,37.54
2022-09-25T02:24:56.503Z,37.62
2022-09-25T02:27:40.176Z,37.88
2022-09-25T02:30:58.715Z,38.10
2022-09-25T02:33:55.375Z,38.41
2022-09-25T02:37:22.671Z,38.54
2022-09-25T02:40:27.233Z,38.73
2022-09-25T02:43:58.802Z,38.88
2022-09-25T02:47:37.570Z,39.11
2022-09-25T02:51:03.988Z,39.24
2022-09-25T02:54:29.626Z,39.54
2022-09-25T02:57:52.751Z,39.60
2022-09-25T03:01:13.015Z,39.66
2022-09-25T03:04:00.451Z,39.98
2022-09-25T03:07:09.013Z,39.92
2022-09-25T03:10:28.169Z,40.33
2022-09-25T03:13:38.248Z,40.32
2022-09-25T03:17:01.240Z,40.51
2022-09-25T03:20:03.507Z,40.60
2022-09-25T03:22:59.736Z,40.61
2022-09-25T04:14:08.027Z,43.22
2022-09-25T04:23:34.262Z,43.79
2022-09-25T04:51:46.549Z,45.28
2022-09-25T05:11:04.708Z,46.24
2022-09-25T05:14:20.392Z,46.43
2022-09-25T05:45:10.257Z,47.92
2022-09-25T05:51:13.053Z,48.40
2022-09-25T05:54:16.509Z,48.29
2022-09-25T05:57:28.833Z,48.57
2022-09-25T06:04:01.351Z,48.89
2022-09-25T06:07:00.657Z,49.09
2022-09-25T06:10:18.598Z,49.15
2022-09-25T06:13:18.020Z,49.38
2022-09-25T06:16:36.538Z,49.67
2022-09-25T06:20:03.350Z,49.77
2022-09-25T06:23:20.407Z,49.77
2022-09-25T06:26:27.809Z,50.23
2022-09-25T06:29:48.096Z,50.44
2022-09-25T06:33:15.081Z,50.61
2022-09-25T06:45:59.969Z,51.47
2022-09-25T07:34:24.765Z,53.96
2022-09-25T07:46:22.226Z,54.90
2022-09-25T07:49:39.898Z,55.12
2022-09-25T07:52:11.934Z,55.40
2022-09-25T07:55:32.321Z,55.51
2022-09-25T07:58:42.098Z,55.69
2022-09-25T08:01:59.610Z,55.70
2022-09-25T08:04:57.281Z,55.70
2022-09-25T08:08:05.378Z,55.87
2022-09-25T08:11:26.496Z,56.17
2022-09-25T08:14:33.885Z,56.28
2022-09-25T08:17:47.115Z,56.52
2022-09-25T08:20:56.659Z,56.58
2022-09-25T08:24:14.818Z,56.68
2022-09-25T08:27:33.748Z,56.88
2022-09-25T08:30:52.877Z,56.99
2022-09-25T08:33:42.772Z,57.19
2022-09-25T08:36:54.676Z,57.36
2022-09-25T08:40:22.767Z,57.61
2022-09-25T08:43:50.163Z,57.70
2022-09-25T08:47:27.872Z,57.81
2022-09-25T08:51:13.735Z,58.06
2022-09-25T08:54:31.266Z,58.26
2022-09-25T08:57:43.356Z,58.54
2022-09-25T09:01:00.444Z,58.58
2022-09-25T09:04:19.769Z,58.73
2022-09-25T09:07:26.338Z,58.86
2022-09-25T09:11:01.954Z,59.15
2022-09-25T09:14:02.971Z,59.34
2022-09-25T09:17:44.069Z,59.41
2022-09-25T09:21:20.296Z,59.39
2022-09-25T09:24:37.501Z,59.39
2022-09-25T09:28:11.060Z,59.58
2022-09-25T09:31:44.241Z,59.79
2022-09-25T09:35:11.100Z,59.76
2022-09-25T09:38:26.960Z,59.97
2022-09-25T09:42:29.069Z,60.07
2022-09-25T09:45:49.688Z,60.21
2022-09-25T09:49:25.384Z,60.36
2022-09-25T09:52:53.268Z,60.36
2022-09-25T09:56:09.163Z,60.48
2022-09-25T10:00:04.940Z,60.62
2022-09-25T10:03:32.442Z,60.79
2022-09-25T10:06:57.065Z,60.76
2022-09-25T10:10:23.640Z,61.05
2022-09-25T10:13:57.709Z,61.24
2022-09-25T10:17:24.551Z,61.27
2022-09-25T10:20:56.766Z,61.23
2022-09-25T10:24:33.012Z,61.48
2022-09-25T10:27:53.654Z,61.66
2022-09-25T10:31:21.668Z,61.72
2022-09-25T10:34:46.817Z,61.82
2022-09-25T10:38:17.843Z,61.82
2022-09-25T10:41:34.142Z,61.86
2022-09-25T10:45:03.368Z,61.85
2022-09-25T10:48:29.830Z,62.05
2022-09-25T10:51:49.784Z,62.10
2022-09-25T10:54:53.323Z,62.19
2022-09-25T10:58:16.668Z,62.29
2022-09-25T11:01:16.701Z,62.44
2022-09-25T11:04:47.771Z,62.23
2022-09-25T11:08:14.408Z,62.68
2022-09-25T11:11:20.274Z,62.72
2022-09-25T11:14:51.359Z,63.07
2022-09-25T11:18:13.199Z,62.87
2022-09-25T11:21:32.843Z,62.93
2022-09-25T11:25:03.539Z,63.16
2022-09-25T11:28:23.071Z,63.13
2022-09-25T11:31:53.680Z,63.23
2022-09-25T11:35:26.283Z,63.31
2022-09-25T11:39:16.071Z,63.33
2022-09-25T11:42:42.787Z,63.42
2022-09-25T11:45:52.560Z,63.42
2022-09-25T11:49:12.505Z,63.47
2022-09-25T11:52:39.433Z,63.75
2022-09-25T11:56:00.541Z,63.77
2022-09-25T11:59:28.176Z,63.69
2022-09-25T12:03:01.805Z,63.64
2022-09-25T12:06:29.412Z,63.81
2022-09-25T12:10:03.864Z,63.96
2022-09-25T12:13:34.717Z,64.14
2022-09-25T12:16:59.642Z,64.07
2022-09-25T12:20:29.910Z,64.17
2022-09-25T12:23:28.408Z,64.23
2022-09-25T12:26:58.825Z,64.28
2022-09-25T12:30:31.457Z,64.54
2022-09-25T12:34:13.331Z,64.62
2022-09-25T12:37:10.646Z,64.71
2022-09-25T12:40:36.148Z,64.76
2022-09-25T12:44:01.410Z,64.89
2022-09-25T12:47:30.339Z,65.06
2022-09-25T12:51:10.372Z,65.06
2022-09-25T12:54:43.398Z,65.23
2022-09-25T12:58:20.055Z,65.41
2022-09-25T13:01:46.751Z,65.46
2022-09-25T13:05:11.869Z,65.47
2022-09-25T13:08:46.629Z,65.61
2022-09-25T13:11:59.635Z,65.55
2022-09-25T13:15:39.518Z,65.74
2022-09-25T13:18:59.910Z,65.77
2022-09-25T13:22:20.254Z,65.83
2022-09-25T13:25:48.950Z,65.83
2022-09-25T13:29:16.868Z,65.89
2022-09-25T13:32:44.866Z,65.94
2022-09-25T13:36:11.429Z,65.97
2022-09-25T13:39:43.270Z,66.02
2022-09-25T13:43:07.579Z,66.05
2022-09-25T13:46:24.232Z,65.96
2022-09-25T13:49:49.096Z,66.16
2022-09-25T13:53:40.848Z,66.08
2022-09-25T13:57:10.859Z,66.24
2022-09-25T14:00:32.796Z,66.39
2022-09-25T14:04:11.377Z,66.46
2022-09-25T14:07:38.678Z,66.73
2022-09-25T14:11:06.153Z,66.74
2022-09-25T14:14:33.472Z,66.82
2022-09-25T14:18:00.752Z,66.87
2022-09-25T14:21:28.944Z,66.98
2022-09-25T14:25:05.697Z,67.23
2022-09-25T14:28:22.337Z,68.15
2022-09-25T14:31:58.098Z,67.99
2022-09-25T14:35:25.063Z,67.04
2022-09-25T14:39:12.608Z,65.86
2022-09-25T14:46:13.608Z,62.44
2022-09-25T14:49:41.114Z,60.89
2022-09-25T14:53:10.851Z,59.31
2022-09-25T14:56:40.337Z,58.18
2022-09-25T14:59:57.425Z,57.18
2022-09-25T15:12:22.838Z,53.35
2022-09-25T15:16:03.871Z,52.72
2022-09-25T15:37:02.716Z,49.04
2022-09-25T15:40:31.008Z,48.71
2022-09-25T15:43:57.670Z,48.27
2022-09-25T15:47:24.805Z,48.01
2022-09-25T15:51:02.428Z,47.49
2022-09-25T15:57:55.134Z,46.85
2022-09-25T16:08:01.676Z,45.27
2022-09-25T16:11:43.292Z,44.71
2022-09-25T16:18:54.707Z,44.39
2022-09-25T16:32:12.509Z,43.24
2022-09-25T16:36:10.565Z,42.75
2022-09-25T16:47:39.137Z,41.88
2022-09-25T16:51:25.360Z,41.20
2022-09-25T16:54:40.442Z,41.02
2022-09-25T16:58:06.880Z,40.61
2022-09-25T17:01:33.789Z,40.02
2022-09-25T17:04:45.969Z,39.85
2022-09-25T17:08:12.707Z,39.47
2022-09-25T17:11:40.353Z,39.09
2022-09-25T17:15:00.573Z,39.00
2022-09-25T17:18:13.935Z,38.47
2022-09-25T17:21:20.730Z,38.25
2022-09-25T17:24:48.321Z,38.02
2022-09-25T17:28:00.031Z,37.43
2022-09-25T17:31:26.784Z,37.26
2022-09-25T17:35:00.327Z,37.18
2022-09-25T17:38:27.035Z,37.34
2022-09-25T17:41:59.670Z,37.11
2022-09-25T17:45:15.815Z,36.93
2022-09-25T17:48:43.290Z,36.94
2022-09-25T17:52:15.913Z,36.55
2022-09-25T17:55:42.813Z,36.21
2022-09-25T17:59:10.916Z,36.01
2022-09-25T18:02:30.755Z,35.98
2022-09-25T18:05:57.720Z,35.87
2022-09-25T18:09:24.595Z,35.88
2022-09-25T18:12:52.758Z,35.68
2022-09-25T18:16:19.623Z,35.33
2022-09-25T18:19:45.703Z,35.36
2022-09-25T18:23:12.340Z,35.16
2022-09-25T18:26:39.076Z,34.78
2022-09-25T18:29:55.989Z,34.79
2022-09-25T18:33:23.605Z,34.35
2022-09-25T18:36:32.232Z,34.30
2022-09-25T18:39:58.982Z,34.07
2022-09-25T18:43:26.664Z,34.02
2022-09-25T18:46:43.689Z,33.58
2022-09-25T18:50:10.325Z,33.47
2022-09-25T18:53:10.075Z,33.11
2022-09-25T18:56:28.098Z,33.03
2022-09-25T18:59:53.882Z,32.83
2022-09-25T19:03:25.879Z,32.42
2022-09-25T19:06:38.852Z,32.23
2022-09-25T19:09:32.908Z,32.16
2022-09-25T19:12:29.808Z,32.10
2022-09-25T19:15:56.548Z,31.94
2022-09-25T19:19:23.502Z,31.68
2022-09-25T19:22:49.992Z,31.42
2022-09-25T19:26:06.333Z,31.31
2022-09-25T19:29:29.389Z,31.47
2022-09-25T19:32:48.374Z,31.19
2022-09-25T19:36:15.213Z,31.29
2022-09-25T19:39:36.271Z,31.17
2022-09-25T19:42:54.853Z,30.89
2022-09-25T19:46:04.398Z,30.75
2022-09-25T19:49:35.922Z,30.96
2022-09-25T19:53:00.797Z,30.76
2022-09-25T19:56:11.799Z,30.52
2022-09-25T19:59:30.364Z,30.67
2022-09-25T20:02:57.770Z,30.99
2022-09-25T20:06:24.352Z,30.86
2022-09-25T20:09:43.952Z,30.63
2022-09-25T20:12:53.206Z,30.53
2022-09-25T20:16:14.535Z,30.44
2022-09-25T20:19:01.509Z,30.46
2022-09-25T20:22:29.177Z,30.39
2022-09-25T20:25:56.847Z,30.41
2022-09-25T20:29:23.642Z,29.82
2022-09-25T20:32:50.666Z,29.85
2022-09-25T20:36:18.397Z,29.73
2022-09-25T20:39:35.233Z,30.08
2022-09-25T20:42:42.974Z,29.79
2022-09-25T22:42:33.201Z,27.55
2022-09-25T22:45:44.481Z,27.46
2022-09-25T22:49:03.920Z,27.61
2022-09-25T22:52:23.198Z,27.56
2022-09-25T22:55:20.131Z,27.74
2022-09-25T22:58:37.458Z,27.74
2022-09-25T23:02:10.622Z,27.80
2022-09-25T23:05:02.919Z,27.83
2022-09-25T23:08:13.569Z,27.80
2022-09-25T23:11:06.094Z,27.83
2022-09-25T23:14:24.149Z,27.95
2022-09-25T23:17:52.088Z,27.94
2022-09-25T23:20:58.871Z,28.22
2022-09-25T23:24:19.293Z,28.17
